createdAt,value
2022-11-26T00:01:22.451Z,5.60
2022-11-26T00:03:49.617Z,6.00
2022-11-26T00:06:35.682Z,5.70
2022-11-26T00:11:33.485Z,5.60
2022-11-26T00:14:00.755Z,5.50
2022-11-26T00:16:29.239Z,5.50
2022-11-26T00:18:56.230Z,5.70
2022-11-26T00:21:27.029Z,5.20
2022-11-26T00:26:24.437Z,6.50
2022-11-26T00:29:01.169Z,5.30
2022-11-26T00:33:56.529Z,5.60
2022-11-26T00:36:31.676Z,5.60
2022-11-26T00:39:09.986Z,5.50
2022-11-26T00:41:38.697Z,5.50
2022-11-26T00:44:22.278Z,5.50
2022-11-26T00:46:50.172Z,5.70
2022-11-26T00:51:46.411Z,5.40
2022-11-26T00:54:17.524Z,5.50
2022-11-26T00:56:44.807Z,5.70
2022-11-26T00:59:14.737Z,5.60
2022-11-26T01:04:09.369Z,5.70
2022-11-26T01:06:40.220Z,5.60
2022-11-26T01:09:19.066Z,5.50
2022-11-26T01:11:50.937Z,5.50
2022-11-26T01:14:21.935Z,5.50
2022-11-26T01:16:50.449Z,6.20
2022-11-26T01:19:17.790Z,5.50
2022-11-26T01:26:42.662Z,6.30
2022-11-26T01:29:17.998Z,5.60
2022-11-26T01:31:45.590Z,5.40
2022-11-26T01:34:12.590Z,5.40
2022-11-26T01:36:41.201Z,5.50
2022-11-26T01:39:21.613Z,5.60
2022-11-26T01:42:02.799Z,7.10
2022-11-26T01:44:36.218Z,5.60
2022-11-26T01:47:22.039Z,5.40
2022-11-26T01:50:37.856Z,5.60
2022-11-26T01:53:11.769Z,5.60
2022-11-26T01:56:06.946Z,5.60
2022-11-26T01:58:42.772Z,5.50
2022-11-26T02:01:10.156Z,5.50
2022-11-26T02:04:12.368Z,5.60
2022-11-26T02:09:10.760Z,6.80
2022-11-26T02:11:38.380Z,5.50
2022-11-26T02:14:13.190Z,5.50
2022-11-26T02:17:17.277Z,5.50
2022-11-26T02:20:25.492Z,6.70
2022-11-26T02:28:41.027Z,6.60
2022-11-26T02:31:18.515Z,5.70
2022-11-26T02:34:22.457Z,6.70
2022-11-26T02:37:00.175Z,5.60
2022-11-26T02:39:29.314Z,5.60
2022-11-26T02:42:02.293Z,5.60
2022-11-26T02:44:38.131Z,5.60
2022-11-26T02:47:10.838Z,5.50
2022-11-26T02:49:40.240Z,5.70
2022-11-26T02:52:10.229Z,5.60
2022-11-26T02:54:38.686Z,5.70
2022-11-26T02:57:09.573Z,5.60
2022-11-26T02:59:38.213Z,5.60
2022-11-26T03:02:16.518Z,5.60
2022-11-26T03:04:47.648Z,5.60
2022-11-26T03:07:15.183Z,4.40
2022-11-26T03:09:55.520Z,5.70
2022-11-26T03:12:22.899Z,5.80
2022-11-26T03:17:18.269Z,5.80
2022-11-26T03:32:04.244Z,5.90
2022-11-26T03:34:31.177Z,6.10
2022-11-26T03:36:58.066Z,6.00
2022-11-26T03:41:52.350Z,6.00
2022-11-26T04:06:26.117Z,6.00
2022-11-26T04:23:37.160Z,6.10
2022-11-26T04:26:05.328Z,5.90
2022-11-26T04:50:43.222Z,6.40
2022-11-26T04:53:10.634Z,5.70
2022-11-26T04:55:37.559Z,6.10
2022-11-26T04:58:04.452Z,6.10
2022-11-26T05:07:53.748Z,6.00
2022-11-26T05:10:20.911Z,6.10
2022-11-26T05:15:15.410Z,6.10
2022-11-26T05:20:10.905Z,5.90
2022-11-26T05:39:54.608Z,6.10
2022-11-26T05:59:33.731Z,6.10
2022-11-26T06:04:29.068Z,6.00
2022-11-26T06:06:55.921Z,6.00
2022-11-26T06:09:22.830Z,5.90
2022-11-26T06:11:50.612Z,5.90
2022-11-26T06:14:18.298Z,5.90
2022-11-26T06:16:45.213Z,5.90
2022-11-26T06:19:12.574Z,5.40
2022-11-26T06:21:39.451Z,5.40
2022-11-26T06:24:06.598Z,6.10
2022-11-26T06:29:00.866Z,6.10
2022-11-26T06:33:56.143Z,6.10
2022-11-26T06:36:23.567Z,6.40
2022-11-26T06:38:50.596Z,6.10
2022-11-26T06:41:17.566Z,6.00
2022-11-26T06:43:44.459Z,6.70
2022-11-26T06:46:12.503Z,6.00
2022-11-26T06:48:40.737Z,7.60
2022-11-26T06:51:14.523Z,5.40
2022-11-26T06:53:44.775Z,6.00
2022-11-26T06:56:18.451Z,6.10
2022-11-26T07:01:19.119Z,6.20
2022-11-26T07:06:26.263Z,6.10
2022-11-26T07:08:55.529Z,6.50
2022-11-26T07:11:24.065Z,6.00
2022-11-26T07:13:51.311Z,5.90
2022-11-26T07:18:51.417Z,6.20
2022-11-26T07:21:19.586Z,6.20
2022-11-26T07:23:47.408Z,6.20
2022-11-26T07:26:15.256Z,6.20
2022-11-26T07:31:16.390Z,6.40
2022-11-26T07:33:47.617Z,6.20
2022-11-26T07:36:27.369Z,6.20
2022-11-26T07:38:56.119Z,6.50
2022-11-26T07:43:50.962Z,6.20
2022-11-26T07:46:21.725Z,5.10
2022-11-26T07:51:36.997Z,6.30
2022-11-26T07:54:06.527Z,6.40
2022-11-26T07:56:34.316Z,6.30
2022-11-26T08:01:30.196Z,6.60
2022-11-26T08:03:59.514Z,6.40
2022-11-26T08:06:29.323Z,6.40
2022-11-26T08:11:31.027Z,6.20
2022-11-26T08:14:01.958Z,6.30
2022-11-26T08:18:59.170Z,6.50
2022-11-26T08:23:54.522Z,6.40
2022-11-26T08:34:00.069Z,6.30
2022-11-26T08:36:30.992Z,6.40
2022-11-26T08:39:00.600Z,6.50
2022-11-26T08:41:28.030Z,6.50
2022-11-26T08:44:10.125Z,6.40
2022-11-26T08:54:00.919Z,5.30
2022-11-26T08:58:55.081Z,6.50
2022-11-26T09:01:29.337Z,7.00
2022-11-26T09:04:01.882Z,6.60
2022-11-26T09:06:32.758Z,6.70
2022-11-26T09:09:13.792Z,6.60
2022-11-26T09:11:58.587Z,6.60
2022-11-26T09:14:28.869Z,6.70
2022-11-26T09:16:57.755Z,6.70
2022-11-26T09:21:52.466Z,6.80
2022-11-26T09:24:19.880Z,6.90
2022-11-26T09:29:19.093Z,6.70
2022-11-26T09:32:15.346Z,6.60
2022-11-26T09:34:34.129Z,5.60
2022-11-26T09:39:28.931Z,6.30
2022-11-26T09:42:44.863Z,7.00
2022-11-26T09:45:36.320Z,6.40
2022-11-26T09:48:04.984Z,6.80
2022-11-26T09:50:35.386Z,6.90
2022-11-26T09:53:16.760Z,7.80
2022-11-26T09:55:49.270Z,6.70
2022-11-26T09:58:41.036Z,6.90
2022-11-26T10:01:14.483Z,6.90
2022-11-26T10:06:44.668Z,6.90
2022-11-26T10:09:17.629Z,6.80
2022-11-26T10:12:26.402Z,6.60
2022-11-26T10:15:38.043Z,6.90
2022-11-26T10:18:45.363Z,7.10
2022-11-26T10:21:32.578Z,7.30
2022-11-26T10:24:33.558Z,6.10
2022-11-26T10:27:09.896Z,7.00
2022-11-26T10:29:54.949Z,7.00
2022-11-26T10:32:38.395Z,6.80
2022-11-26T10:35:06.016Z,7.70
2022-11-26T10:40:27.532Z,7.00
2022-11-26T10:43:08.191Z,5.20
2022-11-26T10:45:54.455Z,6.80
2022-11-26T10:48:30.378Z,8.80
2022-11-26T10:51:25.131Z,7.10
2022-11-26T10:56:36.664Z,6.80
2022-11-26T10:59:17.162Z,6.70
2022-11-26T11:04:32.603Z,6.90
2022-11-26T11:09:38.190Z,6.70
2022-11-26T11:12:11.478Z,6.70
2022-11-26T11:14:45.633Z,6.80
2022-11-26T11:17:35.559Z,7.00
2022-11-26T11:25:28.955Z,6.90
2022-11-26T11:30:37.606Z,7.00
2022-11-26T11:33:20.497Z,6.90
2022-11-26T11:35:59.029Z,5.70
2022-11-26T11:38:29.521Z,7.30
2022-11-26T11:43:25.443Z,7.60
2022-11-26T11:46:39.227Z,7.30
2022-11-26T11:52:48.647Z,7.10
2022-11-26T11:55:49.506Z,7.10
2022-11-26T11:58:54.375Z,7.10
2022-11-26T12:07:04.050Z,7.50
2022-11-26T12:09:44.416Z,7.20
2022-11-26T12:15:23.789Z,7.20
2022-11-26T12:18:29.021Z,7.20
2022-11-26T12:21:11.747Z,7.30
2022-11-26T12:24:20.734Z,7.40
2022-11-26T12:27:00.718Z,7.40
2022-11-26T12:29:54.019Z,7.30
2022-11-26T12:32:49.800Z,7.50
2022-11-26T12:35:27.074Z,7.40
2022-11-26T12:38:04.111Z,7.50
2022-11-26T12:40:39.376Z,7.40
2022-11-26T12:43:11.663Z,7.60
2022-11-26T12:45:57.439Z,7.60
2022-11-26T12:48:58.197Z,7.50
2022-11-26T12:51:53.839Z,7.70
2022-11-26T12:54:30.919Z,7.80
2022-11-26T12:57:21.880Z,8.10
2022-11-26T13:00:11.033Z,8.00
2022-11-26T13:02:44.465Z,8.80
2022-11-26T13:05:51.209Z,8.90
2022-11-26T13:11:26.749Z,9.00
2022-11-26T13:14:20.807Z,9.40
2022-11-26T13:17:12.364Z,9.30
2022-11-26T13:19:51.074Z,9.00
2022-11-26T13:22:40.728Z,7.00
2022-11-26T13:26:07.850Z,8.70
2022-11-26T13:29:21.297Z,8.80
2022-11-26T13:32:26.121Z,8.80
2022-11-26T13:35:30.866Z,8.90
2022-11-26T13:38:32.355Z,8.80
2022-11-26T13:41:20.444Z,8.80
2022-11-26T13:44:28.503Z,8.70
2022-11-26T13:47:24.866Z,8.50
2022-11-26T13:50:15.543Z,8.40
2022-11-26T13:53:14.204Z,8.50
2022-11-26T13:56:08.880Z,8.40
2022-11-26T13:59:00.247Z,8.50
2022-11-26T14:01:40.595Z,8.40
2022-11-26T14:04:27.913Z,8.40
2022-11-26T14:07:03.858Z,8.40
2022-11-26T14:09:43.137Z,8.40
2022-11-26T14:12:15.260Z,8.40
2022-11-26T14:14:52.472Z,8.40
2022-11-26T14:17:32.640Z,8.30
2022-11-26T14:22:35.689Z,8.40
2022-11-26T14:25:05.726Z,10.80
2022-11-26T14:27:37.425Z,8.20
2022-11-26T14:30:07.639Z,8.30
2022-11-26T14:32:41.169Z,8.10
2022-11-26T14:35:32.469Z,8.20
2022-11-26T14:38:04.254Z,8.00
2022-11-26T14:40:38.186Z,8.10
2022-11-26T14:43:22.728Z,8.00
2022-11-26T14:46:13.976Z,8.10
2022-11-26T14:48:48.219Z,8.00
2022-11-26T14:51:34.297Z,8.10
2022-11-26T14:56:30.511Z,8.00
2022-11-26T14:59:01.910Z,8.00
2022-11-26T15:01:30.942Z,7.80
2022-11-26T15:04:07.357Z,8.00
2022-11-26T15:06:42.476Z,8.00
2022-11-26T15:09:16.819Z,7.80
2022-11-26T15:12:01.367Z,7.80
2022-11-26T15:14:59.124Z,7.70
2022-11-26T15:17:40.768Z,7.70
2022-11-26T15:20:15.009Z,7.70
2022-11-26T15:22:52.062Z,7.70
2022-11-26T15:25:25.425Z,7.70
2022-11-26T15:28:05.067Z,7.70
2022-11-26T15:30:38.134Z,7.60
2022-11-26T15:33:13.786Z,8.40
2022-11-26T15:35:41.749Z,7.70
2022-11-26T15:38:20.622Z,7.40
2022-11-26T15:46:05.301Z,7.60
2022-11-26T15:48:54.203Z,7.50
2022-11-26T15:51:52.877Z,7.60
2022-11-26T15:54:49.548Z,7.40
2022-11-26T15:57:32.987Z,7.50
2022-11-26T16:00:27.189Z,7.50
2022-11-26T16:05:44.609Z,7.40
2022-11-26T16:08:28.190Z,7.40
2022-11-26T16:11:21.282Z,7.40
2022-11-26T16:16:20.013Z,7.40
2022-11-26T16:18:56.313Z,7.30
2022-11-26T16:21:29.840Z,7.30
2022-11-26T16:24:05.468Z,7.30
2022-11-26T16:27:00.996Z,7.30
2022-11-26T16:29:30.360Z,7.30
2022-11-26T16:37:04.103Z,7.30
2022-11-26T16:39:37.507Z,7.30
2022-11-26T16:42:20.636Z,7.20
2022-11-26T16:47:31.337Z,7.20
2022-11-26T17:00:03.424Z,7.20
2022-11-26T17:07:59.131Z,7.20
2022-11-26T17:10:29.518Z,7.10
2022-11-26T17:12:57.802Z,7.10
2022-11-26T17:18:20.420Z,7.00
2022-11-26T17:25:47.217Z,6.70
2022-11-26T17:28:36.429Z,6.60
2022-11-26T17:37:18.857Z,7.10
2022-11-26T17:47:27.284Z,6.90
2022-11-26T18:10:39.636Z,6.80
2022-11-26T18:18:53.233Z,6.20
2022-11-26T18:21:46.778Z,6.50
2022-11-26T18:39:05.084Z,5.60
2022-11-26T18:48:57.780Z,6.40
2022-11-26T18:56:23.680Z,6.50
2022-11-26T19:01:30.838Z,6.30
2022-11-26T19:06:29.739Z,6.40
2022-11-26T19:09:19.376Z,6.40
2022-11-26T19:14:15.960Z,5.50
2022-11-26T19:16:44.091Z,6.30
2022-11-26T19:24:08.843Z,6.20
2022-11-26T19:26:37.610Z,6.20
2022-11-26T19:31:36.105Z,6.20
2022-11-26T19:34:08.935Z,6.20
2022-11-26T19:44:01.251Z,6.10
2022-11-26T19:51:26.380Z,6.20
2022-11-26T19:53:56.314Z,6.20
2022-11-26T19:56:31.443Z,6.00
2022-11-26T19:59:01.975Z,6.00
2022-11-26T20:01:32.852Z,6.00
2022-11-26T20:04:03.279Z,6.00
2022-11-26T20:06:32.616Z,6.00
2022-11-26T20:11:28.796Z,6.00
2022-11-26T20:16:31.144Z,5.90
2022-11-26T20:19:01.001Z,5.90
2022-11-26T20:21:32.288Z,6.00
2022-11-26T20:24:06.627Z,6.00
2022-11-26T20:26:40.666Z,6.00
2022-11-26T20:29:11.845Z,5.90
2022-11-26T20:31:51.388Z,6.00
2022-11-26T20:34:26.088Z,5.90
2022-11-26T20:41:51.143Z,5.80
2022-11-26T20:51:43.914Z,5.90
2022-11-26T21:06:35.163Z,6.90
2022-11-26T21:09:05.052Z,5.70
2022-11-26T21:14:01.526Z,5.60
2022-11-26T21:18:57.330Z,5.70
2022-11-26T21:26:23.834Z,6.70
2022-11-26T21:28:53.311Z,5.60
2022-11-26T21:31:21.655Z,5.50
2022-11-26T21:34:02.621Z,5.30
2022-11-26T21:46:26.621Z,5.50
2022-11-26T21:56:22.161Z,5.40
2022-11-26T22:03:54.780Z,5.30
2022-11-26T22:06:23.887Z,5.40
2022-11-26T22:08:51.701Z,5.30
2022-11-26T22:16:19.530Z,5.30
2022-11-26T22:18:47.862Z,5.40
2022-11-26T22:21:33.349Z,5.30
2022-11-26T22:24:01.996Z,5.30
2022-11-26T22:26:30.575Z,5.30
2022-11-26T22:31:31.915Z,5.00
2022-11-26T22:48:58.598Z,5.20
2022-11-26T22:51:27.794Z,5.10
2022-11-26T22:56:37.671Z,5.20
2022-11-26T23:01:35.240Z,5.10
2022-11-26T23:04:06.184Z,5.10
2022-11-26T23:06:35.304Z,5.10
2022-11-26T23:11:34.991Z,4.90
2022-11-26T23:21:35.699Z,4.00
2022-11-26T23:29:02.335Z,4.90
2022-11-26T23:31:42.096Z,6.40
2022-11-26T23:34:10.770Z,4.90
2022-11-26T23:39:08.022Z,4.90
2022-11-26T23:51:33.193Z,4.80
2022-11-26T23:56:31.390Z,4.80
2022-11-26T23:59:04.280Z,4.70
